createdAt,value
2023-03-12T00:00:21.091Z,94459.00
2023-03-12T00:04:21.111Z,94465.00
2023-03-12T00:08:21.107Z,94467.00
2023-03-12T00:12:21.127Z,94479.00
2023-03-12T00:16:21.184Z,94477.00
2023-03-12T00:20:21.140Z,94479.00
2023-03-12T00:24:21.154Z,94479.00
2023-03-12T00:28:21.181Z,94485.00
2023-03-12T00:32:21.188Z,94485.00
2023-03-12T00:36:21.196Z,94489.00
2023-03-12T00:40:21.247Z,94491.00
2023-03-12T00:44:21.251Z,94493.00
2023-03-12T00:48:21.208Z,94498.00
2023-03-12T00:52:21.230Z,94500.00
2023-03-12T00:56:21.225Z,94500.00
2023-03-12T01:00:21.247Z,94496.00
2023-03-12T01:04:21.316Z,94495.00
2023-03-12T01:08:21.297Z,94498.00
2023-03-12T01:12:21.314Z,94493.00
2023-03-12T01:16:21.376Z,94493.00
2023-03-12T01:20:21.344Z,94495.00
2023-03-12T01:24:21.382Z,94496.00
2023-03-12T01:28:21.432Z,94489.00
2023-03-12T01:32:21.480Z,94489.00
2023-03-12T01:36:21.579Z,94487.00
2023-03-12T01:40:21.547Z,94487.00
2023-03-12T01:44:21.501Z,94487.00
2023-03-12T01:48:21.504Z,94491.00
2023-03-12T01:52:21.517Z,94489.00
2023-03-12T01:56:21.532Z,94495.00
2023-03-12T02:00:21.574Z,94495.00
2023-03-12T02:04:21.646Z,94493.00
2023-03-12T02:08:21.599Z,94500.00
2023-03-12T02:12:21.628Z,94498.00
2023-03-12T02:16:21.688Z,94502.00
2023-03-12T02:20:21.692Z,94512.00
2023-03-12T02:24:21.718Z,94514.00
2023-03-12T02:28:21.753Z,94516.00
2023-03-12T02:32:21.814Z,94514.00
2023-03-12T02:36:21.819Z,94520.00
2023-03-12T02:40:21.868Z,94524.00
2023-03-12T02:44:21.869Z,94530.00
2023-03-12T02:48:21.932Z,94530.00
2023-03-12T02:52:21.962Z,94534.00
2023-03-12T02:56:21.989Z,94542.00
2023-03-12T03:00:22.038Z,94549.00
2023-03-12T03:04:22.156Z,94551.00
2023-03-12T03:08:22.105Z,94553.00
2023-03-12T03:12:22.148Z,94557.00
2023-03-12T03:16:22.180Z,94557.00
2023-03-12T03:20:22.253Z,94563.00
2023-03-12T03:24:22.298Z,94561.00
2023-03-12T03:28:22.354Z,94563.00
2023-03-12T03:32:22.397Z,94565.00
2023-03-12T03:36:22.459Z,94567.00
2023-03-12T03:40:22.473Z,94569.00
2023-03-12T03:44:22.541Z,94573.00
2023-03-12T03:48:22.562Z,94575.00
2023-03-12T03:52:22.633Z,94579.00
2023-03-12T03:56:22.694Z,94573.00
2023-03-12T04:00:22.764Z,94575.00
2023-03-12T04:04:22.779Z,94577.00
2023-03-12T04:08:22.847Z,94581.00
2023-03-12T04:12:22.898Z,94581.00
2023-03-12T04:16:23.088Z,94583.00
2023-03-12T04:20:23.058Z,94589.00
2023-03-12T04:24:23.112Z,94589.00
2023-03-12T04:28:23.196Z,94592.00
2023-03-12T04:32:23.254Z,94594.00
2023-03-12T04:36:23.362Z,94598.00
2023-03-12T04:40:23.430Z,94596.00
2023-03-12T04:44:23.503Z,94598.00
2023-03-12T04:48:23.543Z,94600.00
2023-03-12T04:52:23.610Z,94598.00
2023-03-12T04:56:23.679Z,94602.00
2023-03-12T05:00:23.729Z,94600.00
2023-03-12T05:04:23.791Z,94600.00
2023-03-12T05:08:23.828Z,94604.00
2023-03-12T05:12:24.007Z,94608.00
2023-03-12T05:16:24.062Z,94616.00
2023-03-12T05:20:24.071Z,94616.00
2023-03-12T05:24:24.159Z,94620.00
2023-03-12T05:28:24.244Z,94622.00
2023-03-12T05:32:24.377Z,94626.00
2023-03-12T05:36:24.459Z,94636.00
2023-03-12T05:40:24.504Z,94640.00
2023-03-12T05:44:24.606Z,94640.00
2023-03-12T05:48:24.703Z,94628.00
2023-03-12T05:52:24.754Z,94638.00
2023-03-12T05:56:24.870Z,94636.00
2023-03-12T06:00:24.934Z,94642.00
2023-03-12T06:04:25.015Z,94647.00
2023-03-12T06:08:25.124Z,94645.00
2023-03-12T06:12:25.167Z,94645.00
2023-03-12T06:16:25.259Z,94643.00
2023-03-12T06:20:25.257Z,94647.00
2023-03-12T06:24:25.397Z,94645.00
2023-03-12T06:28:25.446Z,94649.00
2023-03-12T06:32:25.599Z,94649.00
2023-03-12T06:36:25.652Z,94647.00
2023-03-12T06:40:25.680Z,94657.00
2023-03-12T06:44:25.788Z,94649.00
2023-03-12T06:48:25.827Z,94649.00
2023-03-12T06:52:25.911Z,94651.00
2023-03-12T06:56:25.915Z,94665.00
2023-03-12T07:00:25.945Z,94667.00
2023-03-12T07:04:25.989Z,94671.00
2023-03-12T07:08:26.025Z,94671.00
2023-03-12T07:12:26.049Z,94673.00
2023-03-12T07:16:26.236Z,94671.00
2023-03-12T07:20:26.134Z,94669.00
2023-03-12T07:24:26.219Z,94673.00
2023-03-12T07:28:26.249Z,94673.00
2023-03-12T07:32:26.324Z,94677.00
2023-03-12T07:36:26.498Z,94671.00
2023-03-12T07:40:26.364Z,94679.00
2023-03-12T07:44:26.430Z,94671.00
2023-03-12T07:48:26.614Z,94675.00
2023-03-12T07:52:26.565Z,94677.00
2023-03-12T07:56:26.558Z,94679.00
2023-03-12T08:00:26.638Z,94683.00
2023-03-12T08:04:26.806Z,94687.00
2023-03-12T08:08:26.590Z,94677.00
2023-03-12T08:12:26.655Z,94677.00
2023-03-12T08:16:26.648Z,94673.00
2023-03-12T08:20:26.565Z,94671.00
2023-03-12T08:24:26.580Z,94673.00
2023-03-12T08:28:26.593Z,94675.00
2023-03-12T08:32:26.693Z,94673.00
2023-03-12T08:36:26.568Z,94675.00
2023-03-12T08:40:26.595Z,94681.00
2023-03-12T08:44:26.557Z,94675.00
2023-03-12T08:48:26.576Z,94681.00
2023-03-12T08:52:26.551Z,94675.00
2023-03-12T08:56:26.534Z,94679.00
2023-03-12T09:00:26.528Z,94683.00
2023-03-12T09:04:26.650Z,94685.00
2023-03-12T09:08:26.636Z,94698.00
2023-03-12T09:12:26.668Z,94712.00
2023-03-12T09:16:26.665Z,94696.00
2023-03-12T09:20:26.734Z,94702.00
2023-03-12T09:24:26.649Z,94706.00
2023-03-12T09:28:26.699Z,94698.00
2023-03-12T09:32:26.806Z,94706.00
2023-03-12T09:36:26.836Z,94706.00
2023-03-12T09:40:26.816Z,94712.00
2023-03-12T09:44:26.938Z,94710.00
2023-03-12T09:48:27.015Z,94714.00
2023-03-12T09:52:27.149Z,94722.00
2023-03-12T09:56:27.207Z,94712.00
2023-03-12T10:00:27.269Z,94724.00
2023-03-12T10:04:27.239Z,94722.00
2023-03-12T10:08:31.410Z,94712.00
2023-03-12T10:12:27.230Z,94724.00
2023-03-12T10:16:27.160Z,94737.00
2023-03-12T10:20:27.121Z,94741.00
2023-03-12T10:24:27.110Z,94745.00
2023-03-12T10:28:27.055Z,94755.00
2023-03-12T10:32:27.033Z,94757.00
2023-03-12T10:36:26.975Z,94767.00
2023-03-12T10:40:26.976Z,94761.00
2023-03-12T10:44:26.952Z,94763.00
2023-03-12T10:48:26.873Z,94745.00
2023-03-12T10:52:26.873Z,94751.00
2023-03-12T10:56:26.909Z,94751.00
2023-03-12T11:00:26.968Z,94751.00
2023-03-12T11:04:29.965Z,94741.00
2023-03-12T11:08:27.010Z,94751.00
2023-03-12T11:12:26.971Z,94745.00
2023-03-12T11:16:27.098Z,94739.00
2023-03-12T11:20:26.935Z,94755.00
2023-03-12T11:24:26.903Z,94749.00
2023-03-12T11:28:26.930Z,94751.00
2023-03-12T11:32:26.823Z,94749.00
2023-03-12T11:36:26.794Z,94755.00
2023-03-12T11:40:26.737Z,94743.00
2023-03-12T11:44:26.785Z,94743.00
2023-03-12T11:48:27.020Z,94749.00
2023-03-12T11:52:27.252Z,94734.00
2023-03-12T11:56:27.490Z,94736.00
2023-03-12T12:00:27.420Z,94732.00
2023-03-12T12:04:27.402Z,94720.00
2023-03-12T12:08:27.328Z,94732.00
2023-03-12T12:12:27.326Z,94730.00
2023-03-12T12:16:27.301Z,94730.00
2023-03-12T12:20:27.278Z,94726.00
2023-03-12T12:24:27.249Z,94728.00
2023-03-12T12:28:27.247Z,94726.00
2023-03-12T12:32:27.186Z,94722.00
2023-03-12T12:36:27.112Z,94728.00
2023-03-12T12:40:27.250Z,94724.00
2023-03-12T12:44:27.442Z,94722.00
2023-03-12T12:48:27.641Z,94728.00
2023-03-12T12:52:27.818Z,94722.00
2023-03-12T12:56:28.030Z,94730.00
2023-03-12T13:00:28.229Z,94724.00
2023-03-12T13:04:28.534Z,94720.00
2023-03-12T13:08:28.623Z,94718.00
2023-03-12T13:12:28.818Z,94724.00
2023-03-12T13:16:29.058Z,94724.00
2023-03-12T13:20:29.166Z,94734.00
2023-03-12T13:24:29.329Z,94726.00
2023-03-12T13:28:29.499Z,94730.00
2023-03-12T13:32:29.692Z,94732.00
2023-03-12T13:36:29.851Z,94739.00
2023-03-12T13:40:30.046Z,94749.00
2023-03-12T13:44:30.257Z,94749.00
2023-03-12T13:48:30.451Z,94745.00
2023-03-12T13:52:30.637Z,94753.00
2023-03-12T13:56:30.820Z,94751.00
2023-03-12T14:00:31.022Z,94753.00
2023-03-12T14:04:31.230Z,94749.00
2023-03-12T14:08:31.362Z,94753.00
2023-03-12T14:12:31.641Z,94771.00
2023-03-12T14:16:31.814Z,94765.00
2023-03-12T14:20:31.928Z,94763.00
2023-03-12T14:24:32.053Z,94767.00
2023-03-12T14:28:32.175Z,94771.00
2023-03-12T14:32:32.397Z,94763.00
2023-03-12T14:36:32.308Z,94747.00
2023-03-12T14:40:32.309Z,94747.00
2023-03-12T14:44:32.327Z,94761.00
2023-03-12T14:48:32.387Z,94751.00
2023-03-12T14:52:32.403Z,94747.00
2023-03-12T14:56:32.439Z,94741.00
2023-03-12T15:00:32.476Z,94736.00
2023-03-12T15:04:32.532Z,94734.00
2023-03-12T15:08:32.450Z,94736.00
2023-03-12T15:12:32.446Z,94732.00
2023-03-12T15:16:32.451Z,94730.00
2023-03-12T15:20:32.603Z,94730.00
2023-03-12T15:24:32.768Z,94730.00
2023-03-12T15:28:32.753Z,94732.00
2023-03-12T15:32:32.787Z,94728.00
2023-03-12T15:36:32.672Z,94722.00
2023-03-12T15:40:32.635Z,94728.00
2023-03-12T15:44:32.633Z,94722.00
2023-03-12T15:48:32.570Z,94728.00
2023-03-12T15:52:32.584Z,94730.00
2023-03-12T15:56:32.501Z,94728.00
2023-03-12T16:00:32.487Z,94722.00
2023-03-12T16:04:32.423Z,94724.00
2023-03-12T16:08:32.416Z,94734.00
2023-03-12T16:12:32.399Z,94728.00
2023-03-12T16:16:32.451Z,94728.00
2023-03-12T16:20:32.364Z,94734.00
2023-03-12T16:24:32.500Z,94732.00
2023-03-12T16:28:32.649Z,94730.00
2023-03-12T16:32:32.885Z,94720.00
2023-03-12T16:36:32.903Z,94728.00
2023-03-12T16:40:34.036Z,94730.00
2023-03-12T16:44:33.046Z,94734.00
2023-03-12T16:48:33.132Z,94734.00
2023-03-12T16:52:33.260Z,94739.00
2023-03-12T16:56:33.489Z,94745.00
2023-03-12T17:00:33.427Z,94753.00
2023-03-12T17:04:33.421Z,94753.00
2023-03-12T17:08:33.406Z,94761.00
2023-03-12T17:12:33.349Z,94773.00
2023-03-12T17:16:33.342Z,94788.00
2023-03-12T17:20:33.279Z,94790.00
2023-03-12T17:24:33.259Z,94796.00
2023-03-12T17:28:33.198Z,94794.00
2023-03-12T17:32:33.230Z,94810.00
2023-03-12T17:36:33.132Z,94818.00
2023-03-12T17:40:33.113Z,94830.00
2023-03-12T17:44:33.069Z,94828.00
2023-03-12T17:48:33.026Z,94841.00
2023-03-12T17:52:32.993Z,94853.00
2023-03-12T17:56:32.982Z,94857.00
2023-03-12T18:00:32.936Z,94861.00
2023-03-12T18:04:32.903Z,94867.00
2023-03-12T18:08:32.868Z,94861.00
2023-03-12T18:12:33.010Z,94861.00
2023-03-12T18:16:33.426Z,94865.00
2023-03-12T18:20:39.308Z,94865.00
2023-03-12T18:24:34.347Z,94867.00
2023-03-12T18:28:33.323Z,94861.00
2023-03-12T18:32:33.553Z,94871.00
2023-03-12T18:37:25.170Z,94875.00
2023-03-12T18:41:25.148Z,94873.00
2023-03-12T18:45:25.125Z,94873.00
2023-03-12T18:49:25.071Z,94875.00
2023-03-12T18:53:25.033Z,94892.00
2023-03-12T18:57:25.028Z,94892.00
2023-03-12T19:01:24.971Z,94902.00
2023-03-12T19:05:24.944Z,94910.00
2023-03-12T19:09:25.143Z,94914.00
2023-03-12T19:13:25.115Z,94912.00
2023-03-12T19:17:25.105Z,94916.00
2023-03-12T19:21:25.057Z,94912.00
2023-03-12T19:25:25.013Z,94918.00
2023-03-12T19:29:24.982Z,94922.00
2023-03-12T19:33:24.960Z,94918.00
2023-03-12T19:37:24.896Z,94912.00
2023-03-12T19:41:24.857Z,94912.00
2023-03-12T19:45:24.887Z,94914.00
2023-03-12T19:49:24.845Z,94914.00
2023-03-12T19:53:24.814Z,94912.00
2023-03-12T19:57:24.770Z,94914.00
2023-03-12T20:01:24.845Z,94914.00
2023-03-12T20:05:24.922Z,94918.00
2023-03-12T20:09:25.006Z,94918.00
2023-03-12T20:13:25.072Z,94922.00
2023-03-12T20:17:25.114Z,94916.00
2023-03-12T20:21:25.178Z,94922.00
2023-03-12T20:25:25.206Z,94924.00
2023-03-12T20:29:25.245Z,94924.00
2023-03-12T20:33:25.230Z,94922.00
2023-03-12T20:37:25.213Z,94922.00
2023-03-12T20:41:25.182Z,94933.00
2023-03-12T20:45:25.188Z,94933.00
2023-03-12T20:49:25.189Z,94935.00
2023-03-12T20:53:25.125Z,94935.00
2023-03-12T20:57:25.127Z,94935.00
2023-03-12T21:01:25.169Z,94941.00
2023-03-12T21:05:25.225Z,94935.00
2023-03-12T21:09:25.123Z,94939.00
2023-03-12T21:13:25.143Z,94943.00
2023-03-12T21:17:25.161Z,94945.00
2023-03-12T21:21:25.188Z,94945.00
2023-03-12T21:25:25.210Z,94949.00
2023-03-12T21:29:25.201Z,94949.00
2023-03-12T21:33:25.225Z,94945.00
2023-03-12T21:37:25.264Z,94953.00
2023-03-12T21:41:25.270Z,94949.00
2023-03-12T21:45:25.351Z,94949.00
2023-03-12T21:49:25.392Z,94945.00
2023-03-12T21:53:25.838Z,94947.00
2023-03-12T21:57:25.405Z,94949.00
2023-03-12T22:01:25.547Z,94949.00
2023-03-12T22:05:25.502Z,94955.00
2023-03-12T22:09:25.513Z,94957.00
2023-03-12T22:13:25.531Z,94961.00
2023-03-12T22:17:25.593Z,94965.00
2023-03-12T22:21:25.610Z,94965.00
2023-03-12T22:25:25.632Z,94969.00
2023-03-12T22:29:25.666Z,94969.00
2023-03-12T22:33:25.667Z,94963.00
2023-03-12T22:37:25.726Z,94963.00
2023-03-12T22:41:25.846Z,94965.00
2023-03-12T22:45:25.807Z,94961.00
2023-03-12T22:49:25.887Z,94963.00
2023-03-12T22:53:25.982Z,94967.00
2023-03-12T22:57:25.992Z,94959.00
2023-03-12T23:01:26.085Z,94967.00
2023-03-12T23:05:26.103Z,94965.00
2023-03-12T23:09:26.165Z,94957.00
2023-03-12T23:13:26.245Z,94953.00
2023-03-12T23:17:26.308Z,94957.00
2023-03-12T23:21:26.366Z,94959.00
2023-03-12T23:25:26.465Z,94963.00
2023-03-12T23:29:26.562Z,94959.00
2023-03-12T23:33:26.645Z,94961.00
2023-03-12T23:37:26.685Z,94957.00
2023-03-12T23:41:26.743Z,94961.00
2023-03-12T23:45:26.882Z,94955.00
2023-03-12T23:49:26.913Z,94955.00
2023-03-12T23:53:27.004Z,94957.00
2023-03-12T23:57:27.169Z,94957.00
